createdAt,value
2022-08-19T00:01:08.318Z,26.98
2022-08-19T00:06:10.762Z,25.95
2022-08-19T00:11:15.091Z,24.94
2022-08-19T00:16:25.982Z,24.35
2022-08-19T00:21:29.414Z,23.93
2022-08-19T00:26:31.713Z,23.60
2022-08-19T00:31:34.063Z,23.39
2022-08-19T00:36:36.568Z,24.99
2022-08-19T00:41:39.257Z,26.38
2022-08-19T00:46:43.885Z,26.65
2022-08-19T00:51:47.990Z,25.33
2022-08-19T00:56:51.578Z,24.44
2022-08-19T01:01:57.576Z,23.84
2022-08-19T01:07:00.404Z,23.37
2022-08-19T01:12:03.827Z,23.85
2022-08-19T01:17:07.038Z,25.62
2022-08-19T01:22:16.628Z,26.42
2022-08-19T01:27:19.319Z,25.46
2022-08-19T01:32:33.298Z,24.22
2022-08-19T01:37:40.951Z,23.45
2022-08-19T01:42:43.404Z,22.90
2022-08-19T01:47:52.767Z,23.28
2022-08-19T01:53:07.816Z,25.18
2022-08-19T01:58:15.941Z,26.07
2022-08-19T02:03:18.341Z,26.01
2022-08-19T02:08:20.657Z,24.56
2022-08-19T02:13:26.344Z,23.61
2022-08-19T02:18:28.948Z,23.16
2022-08-19T02:23:32.249Z,24.69
2022-08-19T02:28:34.623Z,25.79
2022-08-19T02:33:36.922Z,25.97
2022-08-19T02:38:40.536Z,24.54
2022-08-19T02:43:44.405Z,23.45
2022-08-19T02:49:06.343Z,22.75
2022-08-19T02:54:09.600Z,23.76
2022-08-19T02:59:12.471Z,25.28
2022-08-19T03:04:16.369Z,26.03
2022-08-19T03:09:20.433Z,25.43
2022-08-19T03:14:23.987Z,24.03
2022-08-19T03:19:26.410Z,23.22
2022-08-19T03:24:28.810Z,23.25
2022-08-19T03:29:32.770Z,24.98
2022-08-19T03:34:35.485Z,25.89
2022-08-19T03:39:38.547Z,26.03
2022-08-19T03:44:43.050Z,24.60
2022-08-19T03:49:45.542Z,23.54
2022-08-19T03:54:47.902Z,23.49
2022-08-19T03:59:50.205Z,25.19
2022-08-19T04:04:54.132Z,26.16
2022-08-19T04:09:56.592Z,25.77
2022-08-19T04:14:59.286Z,24.42
2022-08-19T04:20:02.038Z,23.66
2022-08-19T04:25:09.737Z,23.24
2022-08-19T04:30:12.458Z,24.47
2022-08-19T04:35:18.522Z,25.98
2022-08-19T04:40:25.440Z,25.69
2022-08-19T04:45:27.782Z,24.48
2022-08-19T04:50:41.999Z,24.03
2022-08-19T04:55:44.407Z,25.68
2022-08-19T05:00:46.835Z,26.33
2022-08-19T05:05:49.587Z,25.23
2022-08-19T05:10:52.511Z,24.65
2022-08-19T05:15:56.372Z,24.37
2022-08-19T05:21:01.858Z,24.28
2022-08-19T05:26:04.819Z,24.68
2022-08-19T05:31:07.162Z,26.77
2022-08-19T05:36:09.918Z,26.75
2022-08-19T05:41:13.488Z,26.03
2022-08-19T05:46:19.004Z,25.69
2022-08-19T05:51:30.292Z,25.53
2022-08-19T05:56:32.687Z,25.39
2022-08-19T06:01:35.638Z,25.27
2022-08-19T06:06:37.961Z,25.21
2022-08-19T06:11:44.329Z,25.23
2022-08-19T06:16:46.989Z,25.29
2022-08-19T06:21:50.367Z,25.38
2022-08-19T06:26:56.678Z,25.49
2022-08-19T06:32:01.720Z,25.66
2022-08-19T06:37:04.108Z,25.89
2022-08-19T06:42:09.113Z,26.15
2022-08-19T06:47:23.870Z,26.38
2022-08-19T06:52:27.666Z,26.64
2022-08-19T06:57:32.386Z,26.86
2022-08-19T07:02:38.294Z,27.06
2022-08-19T07:07:43.939Z,27.27
2022-08-19T07:12:51.051Z,27.49
2022-08-19T07:17:53.489Z,27.69
2022-08-19T07:22:56.131Z,27.89
2022-08-19T07:27:58.948Z,28.12
2022-08-19T07:33:04.276Z,28.30
2022-08-19T07:38:08.296Z,28.46
2022-08-19T07:43:14.090Z,28.58
2022-08-19T07:48:19.879Z,28.73
2022-08-19T07:53:22.577Z,28.89
2022-08-19T07:58:24.939Z,29.11
2022-08-19T08:03:31.032Z,29.35
2022-08-19T08:08:36.520Z,29.57
2022-08-19T08:13:39.162Z,29.83
2022-08-19T08:18:43.145Z,30.08
2022-08-19T08:23:45.561Z,30.44
2022-08-19T08:28:49.525Z,30.76
2022-08-19T08:33:52.181Z,31.00
2022-08-19T08:43:57.849Z,31.38
2022-08-19T08:49:08.256Z,31.57
2022-08-19T08:54:12.655Z,31.85
2022-08-19T08:59:16.192Z,32.09
2022-08-19T09:04:18.997Z,32.30
2022-08-19T09:09:31.927Z,32.41
2022-08-19T09:14:54.046Z,32.53
2022-08-19T09:20:03.273Z,32.75
2022-08-19T09:25:07.964Z,32.88
2022-08-19T09:30:22.549Z,33.01
2022-08-19T09:35:26.349Z,33.20
2022-08-19T09:40:34.379Z,33.46
2022-08-19T09:45:40.231Z,33.73
2022-08-19T09:50:51.577Z,33.92
2022-08-19T09:55:56.235Z,34.00
2022-08-19T10:00:59.520Z,34.08
2022-08-19T10:06:03.118Z,34.08
2022-08-19T10:11:27.840Z,34.01
2022-08-19T10:16:30.094Z,33.97
2022-08-19T10:21:33.564Z,34.06
2022-08-19T10:26:37.952Z,34.18
2022-08-19T10:32:01.342Z,34.33
2022-08-19T10:37:03.948Z,34.53
2022-08-19T10:42:11.303Z,34.55
2022-08-19T10:47:24.568Z,34.61
2022-08-19T10:52:32.673Z,34.70
2022-08-19T11:02:58.421Z,34.86
2022-08-19T11:08:00.746Z,34.99
2022-08-19T11:13:05.303Z,35.08
2022-08-19T11:18:13.330Z,35.00
2022-08-19T11:23:15.908Z,34.93
2022-08-19T11:28:18.212Z,34.94
2022-08-19T11:33:20.535Z,35.07
2022-08-19T11:38:22.856Z,35.21
2022-08-19T11:43:25.573Z,35.26
2022-08-19T11:48:27.869Z,35.34
2022-08-19T11:53:30.768Z,35.46
2022-08-19T11:58:33.113Z,35.53
2022-08-19T12:03:36.403Z,35.55
2022-08-19T12:08:39.109Z,35.51
2022-08-19T12:13:46.680Z,35.54
2022-08-19T12:18:49.386Z,35.49
2022-08-19T12:23:55.695Z,35.51
2022-08-19T12:29:00.319Z,35.54
2022-08-19T12:34:03.339Z,35.61
2022-08-19T12:39:06.502Z,35.69
2022-08-19T12:44:14.153Z,35.63
2022-08-19T12:49:50.257Z,35.53
2022-08-19T12:54:39.788Z,35.58
2022-08-19T12:59:42.250Z,35.88
2022-08-19T13:04:44.647Z,36.34
2022-08-19T13:09:46.943Z,36.69
2022-08-19T13:14:51.788Z,36.87
2022-08-19T13:19:54.195Z,36.97
2022-08-19T13:24:56.622Z,36.99
2022-08-19T13:30:01.914Z,36.82
2022-08-19T13:35:04.501Z,36.53
2022-08-19T13:40:08.340Z,36.38
2022-08-19T13:45:11.418Z,36.39
2022-08-19T13:50:15.720Z,36.55
2022-08-19T13:55:22.169Z,36.62
2022-08-19T14:00:28.397Z,36.42
2022-08-19T14:05:31.707Z,36.14
2022-08-19T14:10:34.300Z,35.74
2022-08-19T14:15:38.093Z,35.56
2022-08-19T14:20:40.482Z,35.80
2022-08-19T14:25:43.715Z,35.94
2022-08-19T14:30:46.092Z,35.76
2022-08-19T14:35:48.406Z,35.43
2022-08-19T14:40:52.757Z,35.18
2022-08-19T14:45:57.839Z,34.96
2022-08-19T14:51:00.187Z,34.83
2022-08-19T14:56:02.773Z,34.95
2022-08-19T15:01:05.585Z,35.34
2022-08-19T15:06:09.121Z,35.94
2022-08-19T15:11:17.354Z,36.73
2022-08-19T15:16:19.979Z,37.62
2022-08-19T15:21:27.303Z,38.43
2022-08-19T15:26:33.075Z,39.11
2022-08-19T15:31:38.805Z,39.58
2022-08-19T15:36:41.293Z,40.02
2022-08-19T15:41:45.268Z,40.25
2022-08-19T15:46:48.852Z,39.74
2022-08-19T15:51:53.942Z,38.87
2022-08-19T15:56:59.387Z,38.44
2022-08-19T16:02:04.710Z,38.67
2022-08-19T16:07:12.805Z,39.04
2022-08-19T16:12:16.618Z,39.30
2022-08-19T16:17:18.954Z,39.47
2022-08-19T16:22:22.168Z,39.34
2022-08-19T16:27:24.784Z,38.46
2022-08-19T16:32:27.184Z,37.29
2022-08-19T16:37:29.740Z,36.19
2022-08-19T16:42:34.216Z,35.21
2022-08-19T16:47:36.617Z,34.47
2022-08-19T16:52:38.972Z,33.88
2022-08-19T16:57:41.313Z,33.31
2022-08-19T17:02:44.026Z,32.81
2022-08-19T17:07:46.427Z,32.37
2022-08-19T17:12:48.923Z,31.94
2022-08-19T17:17:52.687Z,31.52
2022-08-19T17:22:56.595Z,31.12
2022-08-19T17:28:05.704Z,30.75
2022-08-19T17:33:08.116Z,30.40
2022-08-19T17:38:14.218Z,30.06
2022-08-19T17:43:17.217Z,29.74
2022-08-19T17:48:39.245Z,29.42
2022-08-19T17:53:41.609Z,29.13
2022-08-19T17:58:46.001Z,28.87
2022-08-19T18:03:57.000Z,28.65
2022-08-19T18:08:59.579Z,28.44
2022-08-19T18:14:02.208Z,28.25
2022-08-19T18:19:04.794Z,28.08
2022-08-19T18:24:07.200Z,27.94
2022-08-19T18:29:09.605Z,27.79
2022-08-19T18:34:11.932Z,27.65
2022-08-19T18:39:17.353Z,27.51
2022-08-19T18:44:23.628Z,27.37
2022-08-19T18:49:31.984Z,27.24
2022-08-19T18:54:35.540Z,27.15
2022-08-19T18:59:38.591Z,27.08
2022-08-19T19:04:41.411Z,27.02
2022-08-19T19:09:45.047Z,26.96
2022-08-19T19:14:49.501Z,26.89
2022-08-19T19:19:52.448Z,26.79
2022-08-19T19:24:55.361Z,26.70
2022-08-19T19:29:57.769Z,26.63
2022-08-19T19:35:00.116Z,26.57
2022-08-19T19:40:02.602Z,26.52
2022-08-19T19:45:05.224Z,26.47
2022-08-19T19:50:16.056Z,26.43
2022-08-19T19:55:19.197Z,26.42
2022-08-19T20:00:21.990Z,26.40
2022-08-19T20:05:24.730Z,26.39
2022-08-19T20:10:27.991Z,26.39
2022-08-19T20:15:31.962Z,26.38
2022-08-19T20:20:34.824Z,26.38
2022-08-19T20:25:37.888Z,26.40
2022-08-19T20:30:46.498Z,26.41
2022-08-19T20:35:50.365Z,26.41
2022-08-19T20:40:52.903Z,26.41
2022-08-19T20:45:55.859Z,26.39
2022-08-19T20:50:58.443Z,26.37
2022-08-19T20:56:00.761Z,26.34
2022-08-19T21:01:04.046Z,26.31
2022-08-19T21:06:06.971Z,26.29
2022-08-19T21:11:10.385Z,26.26
2022-08-19T21:16:12.774Z,26.24
2022-08-19T21:21:15.753Z,26.23
2022-08-19T21:26:18.187Z,26.23
2022-08-19T21:31:20.997Z,26.24
2022-08-19T21:36:23.326Z,26.24
2022-08-19T21:41:25.783Z,26.23
2022-08-19T21:46:38.573Z,26.23
2022-08-19T21:51:41.286Z,26.20
2022-08-19T21:56:43.579Z,26.19
2022-08-19T22:01:49.666Z,26.17
2022-08-19T22:06:56.365Z,26.14
2022-08-19T22:11:58.776Z,26.12
2022-08-19T22:17:01.126Z,26.10
2022-08-19T22:22:03.665Z,26.10
2022-08-19T22:27:06.695Z,26.09
2022-08-19T22:32:26.999Z,26.07
2022-08-19T22:37:31.627Z,26.04
2022-08-19T22:42:33.938Z,26.00
2022-08-19T22:47:39.384Z,25.94
2022-08-19T22:52:52.035Z,25.88
2022-08-19T22:57:55.521Z,25.82
2022-08-19T23:02:58.357Z,25.77
2022-08-19T23:08:00.710Z,25.69
2022-08-19T23:13:03.146Z,25.60
2022-08-19T23:18:05.518Z,25.30
2022-08-19T23:23:09.455Z,24.95
2022-08-19T23:28:15.072Z,24.70
2022-08-19T23:33:24.100Z,26.07
2022-08-19T23:38:28.003Z,25.79
2022-08-19T23:43:30.893Z,25.05
2022-08-19T23:48:34.910Z,25.62
2022-08-19T23:53:40.677Z,27.24
2022-08-19T23:58:43.029Z,27.95
